Time;durP1;ratioP1;P1;durP2;ratioP2;P2;SDS_P1;SDS_P2;PMS_P1;PMS_P2;Temp;Humidity;BMP_temperature;BMP_pressure;BME280_temperature;BME280_humidity;BME280_pressure;Samples;Min_cycle;Max_cycle;Signal;HPM_P1;HPM_P2
2021/04/17 00:01:07;;;;;;;12.83;9.97;;;;;;;0.49;77.04;96129.91;4996460;28;20179;-74
2021/04/17 00:03:32;;;;;;;13.17;10.17;;;;;;;0.45;76.98;96127.56;4996120;28;20224;-74
2021/04/17 00:05:57;;;;;;;12.93;10.50;;;;;;;0.48;76.67;96117.19;4995833;28;20238;-72
2021/04/17 00:08:23;;;;;;;12.70;9.23;;;;;;;0.47;76.97;96130.88;5013745;28;20184;-74
2021/04/17 00:10:48;;;;;;;13.60;10.40;;;;;;;0.47;76.78;96125.75;4996294;28;20186;-74
2021/04/17 00:13:13;;;;;;;13.17;9.50;;;;;;;0.45;76.82;96125.00;4996089;28;20542;-73
2021/04/17 00:15:39;;;;;;;11.77;10.27;;;;;;;0.52;76.66;96118.69;4995864;28;20198;-74
2021/04/17 00:18:04;;;;;;;11.87;9.77;;;;;;;0.45;76.67;96118.19;5013498;28;20310;-73
2021/04/17 00:20:29;;;;;;;13.17;10.27;;;;;;;0.42;76.84;96118.31;4995943;28;20214;-74
2021/04/17 00:22:55;;;;;;;12.23;10.10;;;;;;;0.38;76.85;96109.13;5013367;28;20186;-73
2021/04/17 00:25:20;;;;;;;13.23;10.67;;;;;;;0.39;77.18;96107.41;4995452;28;20738;-73
2021/04/17 00:27:45;;;;;;;13.30;10.97;;;;;;;0.37;76.90;96101.56;4995699;28;20667;-74
2021/04/17 00:30:11;;;;;;;11.63;10.17;;;;;;;0.37;77.00;96104.94;4979462;28;20639;-74
2021/04/17 00:32:36;;;;;;;13.60;10.57;;;;;;;0.37;76.99;96101.56;4995701;28;20248;-73
2021/04/17 00:35:02;;;;;;;13.27;11.03;;;;;;;0.40;76.88;96098.84;5012907;28;20241;-73
2021/04/17 00:37:28;;;;;;;13.90;11.10;;;;;;;0.38;76.81;96095.53;4995528;28;20665;-73
2021/04/17 00:39:53;;;;;;;15.77;10.63;;;;;;;0.38;77.06;96093.81;4995558;28;20203;-73
2021/04/17 00:42:18;;;;;;;11.33;9.93;;;;;;;0.36;76.79;96090.50;4995613;28;20207;-73
2021/04/17 00:44:44;;;;;;;13.37;10.67;;;;;;;0.34;77.12;96094.84;5012311;28;20354;-73
2021/04/17 00:47:11;;;;;;;13.17;10.70;;;;;;;0.34;77.20;96088.91;4995546;28;20241;-73
2021/04/17 00:49:36;;;;;;;14.43;11.13;;;;;;;0.36;77.14;96087.94;4979238;28;20186;-73
2021/04/17 00:52:02;;;;;;;14.77;11.97;;;;;;;0.32;77.18;96080.50;4995342;28;20187;-73
2021/04/17 00:54:27;;;;;;;11.80;10.60;;;;;;;0.31;77.02;96079.66;4994917;28;20211;-73
2021/04/17 00:56:52;;;;;;;14.17;10.93;;;;;;;0.40;76.78;96083.50;5012874;28;20185;-73
2021/04/17 00:59:18;;;;;;;12.83;11.27;;;;;;;0.25;77.18;96073.09;5011485;28;20625;-73
2021/04/17 01:01:43;;;;;;;14.53;10.87;;;;;;;0.19;77.13;96070.84;5011585;28;20187;-72
2021/04/17 01:04:39;;;;;;;14.37;11.63;;;;;;;0.11;77.57;96072.94;4995040;28;20752;-73
2021/04/17 01:07:12;;;;;;;13.23;11.20;;;;;;;0.07;77.94;96075.69;4935780;28;20201;-74
2021/04/17 01:09:47;;;;;;;16.77;12.57;;;;;;;0.01;78.01;96076.81;4967854;28;20192;-71
2021/04/17 01:12:15;;;;;;;15.20;12.27;;;;;;;-0.01;78.18;96078.59;4951872;29;20200;-72
2021/04/17 01:14:42;;;;;;;17.13;13.10;;;;;;;-0.05;78.17;96072.00;4951445;28;20696;-74
2021/04/17 01:17:11;;;;;;;15.83;11.90;;;;;;;-0.07;78.20;96084.00;4967920;28;20193;-73
2021/04/17 01:19:39;;;;;;;13.93;11.67;;;;;;;-0.13;78.69;96074.88;4951387;29;20251;-74
2021/04/17 01:22:12;;;;;;;15.27;11.63;;;;;;;-0.17;78.44;96073.38;4951735;29;20188;-73
2021/04/17 01:24:39;;;;;;;16.07;12.37;;;;;;;-0.20;78.94;96063.31;4935218;29;20224;-74
2021/04/17 01:27:06;;;;;;;16.17;12.37;;;;;;;-0.22;78.79;96069.38;4951568;29;20189;-74
2021/04/17 01:29:32;;;;;;;15.70;12.23;;;;;;;-0.25;78.78;96070.34;4967604;28;20197;-74
2021/04/17 01:31:59;;;;;;;13.93;12.07;;;;;;;-0.30;78.82;96073.09;4967723;28;20264;-74
2021/04/17 01:34:25;;;;;;;15.67;12.17;;;;;;;-0.31;78.96;96074.00;4966955;28;20653;-74
2021/04/17 01:36:51;;;;;;;13.83;11.47;;;;;;;-0.36;78.72;96072.53;4919494;29;20225;-74
2021/04/17 01:39:18;;;;;;;16.20;12.17;;;;;;;-0.41;79.31;96062.56;4967486;28;20240;-74
2021/04/17 01:41:45;;;;;;;16.47;12.33;;;;;;;-0.44;79.05;96062.69;4967461;28;20185;-74
2021/04/17 01:44:14;;;;;;;16.57;12.97;;;;;;;-0.48;79.17;96057.78;5015248;28;20210;-72
2021/04/17 01:46:45;;;;;;;15.33;12.20;;;;;;;-0.53;79.04;96057.16;5026946;28;20706;-74
2021/04/17 01:49:13;;;;;;;16.63;12.07;;;;;;;-0.59;79.18;96055.72;4994311;28;20179;-74
2021/04/17 01:51:38;;;;;;;16.03;13.10;;;;;;;-0.64;78.90;96061.00;5011903;28;20203;-74
2021/04/17 01:54:07;;;;;;;14.43;12.03;;;;;;;-0.70;79.22;96056.19;5027020;28;20282;-74
2021/04/17 01:56:32;;;;;;;14.53;11.50;;;;;;;-0.73;79.30;96061.41;5010369;28;20765;-74
2021/04/17 01:58:59;;;;;;;16.10;12.47;;;;;;;-0.74;79.50;96066.59;5010658;28;20203;-74
2021/04/17 02:01:25;;;;;;;16.73;13.50;;;;;;;-0.70;80.87;96058.75;5026847;28;20237;-72
2021/04/17 02:03:50;;;;;;;14.67;12.43;;;;;;;-0.73;80.57;96058.03;4994178;28;20262;-73
2021/04/17 02:06:15;;;;;;;17.30;12.83;;;;;;;-0.64;80.66;96055.06;5011520;28;20554;-73
2021/04/17 02:08:41;;;;;;;17.53;13.83;;;;;;;-0.60;81.03;96048.97;5011670;28;20175;-74
2021/04/17 02:11:06;;;;;;;18.70;14.30;;;;;;;-0.58;81.28;96053.09;4994096;28;20190;-74
2021/04/17 02:13:36;;;;;;;17.43;13.93;;;;;;;-0.59;80.94;96050.63;5011711;28;20594;-74
2021/04/17 02:16:09;;;;;;;19.20;14.97;;;;;;;-0.62;81.37;96048.19;5026393;28;20210;-73
2021/04/17 02:18:46;;;;;;;17.60;14.57;;;;;;;-0.66;81.15;96052.59;5026779;28;20248;-74
2021/04/17 02:21:15;;;;;;;19.40;13.90;;;;;;;-0.67;81.26;96048.41;5030008;28;20186;-74
2021/04/17 02:23:41;;;;;;;16.33;13.47;;;;;;;-0.72;81.18;96039.28;4998037;28;20193;-74
2021/04/17 02:26:06;;;;;;;18.40;14.77;;;;;;;-0.73;81.42;96045.28;5014164;28;20187;-74
2021/04/17 02:28:31;;;;;;;20.13;14.77;;;;;;;-0.64;81.07;96047.44;5014139;28;20275;-73
2021/04/17 02:30:57;;;;;;;20.40;15.63;;;;;;;-0.73;81.07;96045.28;5014340;28;20270;-74
2021/04/17 02:33:23;;;;;;;16.90;14.83;;;;;;;-0.71;82.14;96038.38;5030695;28;20665;-74
2021/04/17 02:35:49;;;;;;;19.60;15.40;;;;;;;-0.75;81.52;96044.53;5015230;28;20271;-74
2021/04/17 02:38:15;;;;;;;20.17;15.80;;;;;;;-0.73;81.71;96035.91;5014178;28;20235;-74
2021/04/17 02:40:40;;;;;;;23.23;15.03;;;;;;;-0.71;81.70;96039.22;5013078;28;20297;-73
2021/04/17 02:43:06;;;;;;;21.10;15.90;;;;;;;-0.71;81.75;96043.47;4997503;28;20186;-74
2021/04/17 02:45:31;;;;;;;20.60;16.13;;;;;;;-0.70;81.88;96050.28;5015134;28;20253;-74
2021/04/17 02:47:56;;;;;;;20.23;16.53;;;;;;;-0.66;82.00;96049.22;5013972;28;20538;-74
2021/04/17 02:50:22;;;;;;;19.93;16.07;;;;;;;-0.66;81.68;96047.50;5014075;28;20541;-74
2021/04/17 02:52:48;;;;;;;21.13;17.20;;;;;;;-0.65;81.47;96040.69;4997472;28;20183;-74
2021/04/17 02:55:14;;;;;;;18.17;15.47;;;;;;;-0.67;81.37;96033.09;5030058;28;20222;-74
2021/04/17 02:57:39;;;;;;;20.03;15.27;;;;;;;-0.66;81.33;96042.41;5015003;28;20178;-74
2021/04/17 03:00:07;;;;;;;21.20;15.03;;;;;;;-0.65;81.24;96040.69;5013665;28;20237;-74
2021/04/17 03:02:32;;;;;;;20.87;16.73;;;;;;;-0.61;81.40;96037.09;5011557;28;20191;-74
2021/04/17 03:04:57;;;;;;;19.57;15.83;;;;;;;-0.61;81.15;96037.09;5013439;28;20257;-74
2021/04/17 03:07:23;;;;;;;22.43;17.00;;;;;;;-0.57;81.64;96042.00;5013703;28;20183;-74
2021/04/17 03:09:48;;;;;;;23.00;17.43;;;;;;;-0.54;81.67;96038.47;5014785;28;20557;-74
2021/04/17 03:12:13;;;;;;;18.70;15.63;;;;;;;-0.53;81.77;96037.59;5013484;28;20175;-74
2021/04/17 03:14:40;;;;;;;23.67;15.80;;;;;;;-0.51;81.46;96035.81;4996924;28;20729;-73
2021/04/17 03:17:06;;;;;;;20.23;16.03;;;;;;;-0.49;81.47;96034.00;5013511;28;20229;-74
2021/04/17 03:19:31;;;;;;;22.07;16.57;;;;;;;-0.47;81.44;96024.53;4996998;28;20211;-74
2021/04/17 03:21:57;;;;;;;20.60;16.00;;;;;;;-0.45;81.06;96027.03;4996992;28;20617;-73
2021/04/17 03:24:22;;;;;;;20.63;15.57;;;;;;;-0.43;80.90;96031.19;5014230;28;20286;-75
2021/04/17 03:26:47;;;;;;;21.47;15.87;;;;;;;-0.40;81.16;96031.03;5013186;28;20215;-75
2021/04/17 03:29:12;;;;;;;18.20;15.20;;;;;;;-0.36;81.02;96029.97;5014459;28;20282;-74
2021/04/17 03:31:38;;;;;;;21.07;15.77;;;;;;;-0.34;81.10;96023.09;5014199;28;20188;-75
2021/04/17 03:34:03;;;;;;;20.83;17.37;;;;;;;-0.30;81.61;96021.22;4996625;28;20253;-74
2021/04/17 03:36:28;;;;;;;21.47;16.60;;;;;;;-0.29;81.20;96028.81;5013018;28;20176;-74
2021/04/17 03:38:54;;;;;;;19.13;16.13;;;;;;;-0.28;80.83;96030.47;5012913;28;20202;-73
2021/04/17 03:41:19;;;;;;;19.70;16.50;;;;;;;-0.28;80.83;96025.34;4996596;28;20190;-73
2021/04/17 03:43:45;;;;;;;19.57;16.23;;;;;;;-0.26;80.72;96027.03;5014158;28;20915;-73
2021/04/17 03:46:10;;;;;;;20.30;16.70;;;;;;;-0.26;80.74;96027.03;5012545;28;20179;-72
2021/04/17 03:48:35;;;;;;;21.50;15.43;;;;;;;-0.25;80.84;96028.69;5012911;28;20203;-73
2021/04/17 03:51:01;;;;;;;22.47;15.77;;;;;;;-0.25;80.61;96028.69;5012724;28;20577;-73
2021/04/17 03:53:26;;;;;;;22.83;17.10;;;;;;;-0.26;81.09;96027.03;4996384;28;20647;-72
2021/04/17 03:55:51;;;;;;;22.33;17.30;;;;;;;-0.22;80.70;96031.09;5012432;28;20199;-74
2021/04/17 03:58:17;;;;;;;21.53;17.13;;;;;;;-0.21;80.94;96030.19;5013850;28;20226;-73
2021/04/17 04:00:42;;;;;;;22.63;16.97;;;;;;;-0.22;80.79;96031.91;5013932;28;20172;-73
2021/04/17 04:03:07;;;;;;;22.30;17.93;;;;;;;-0.20;80.68;96031.84;5012664;28;20198;-73
2021/04/17 04:05:32;;;;;;;22.73;16.87;;;;;;;-0.12;80.89;96029.75;5012227;28;20198;-73
2021/04/17 04:07:58;;;;;;;25.67;18.70;;;;;;;-0.12;80.69;96037.44;5013771;28;20730;-74
2021/04/17 04:10:23;;;;;;;23.50;17.20;;;;;;;-0.10;80.69;96038.19;5012460;28;20720;-73
2021/04/17 04:12:48;;;;;;;20.87;16.63;;;;;;;-0.09;80.56;96032.16;5012431;28;20207;-73
2021/04/17 04:15:15;;;;;;;24.27;17.57;;;;;;;-0.10;80.90;96033.91;5012081;28;20716;-74
2021/04/17 04:17:40;;;;;;;30.50;22.37;;;;;;;-0.02;80.65;96038.66;4996121;28;20850;-73
2021/04/17 04:20:07;;;;;;;28.80;20.93;;;;;;;-0.04;80.98;96040.44;4995826;28;20211;-73
2021/04/17 04:22:33;;;;;;;24.00;18.67;;;;;;;-0.04;80.86;96038.72;4995948;28;20306;-72
2021/04/17 04:24:58;;;;;;;21.93;17.30;;;;;;;-0.04;80.76;96041.28;4995562;28;20563;-72
2021/04/17 04:27:24;;;;;;;26.20;18.63;;;;;;;-0.03;80.76;96042.09;5012096;28;20171;-72
2021/04/17 04:29:49;;;;;;;26.70;20.97;;;;;;;-0.04;80.66;96041.28;5013308;28;20556;-72
2021/04/17 04:32:14;;;;;;;26.03;19.77;;;;;;;0.04;80.47;96045.22;4995703;28;20191;-73
2021/04/17 04:34:40;;;;;;;22.17;18.80;;;;;;;0.01;80.48;96043.63;5012847;28;20199;-73
2021/04/17 04:37:05;;;;;;;22.83;17.70;;;;;;;0.09;80.43;96039.00;5011863;28;20213;-72
2021/04/17 04:39:30;;;;;;;21.73;17.17;;;;;;;0.14;79.84;96042.13;5012536;28;20285;-73
2021/04/17 04:41:55;;;;;;;20.73;17.07;;;;;;;0.11;80.12;96052.50;4995457;28;20191;-74
2021/04/17 04:44:21;;;;;;;20.40;16.30;;;;;;;0.11;79.98;96049.13;5012173;28;20207;-73
2021/04/17 04:46:46;;;;;;;21.90;15.23;;;;;;;0.10;79.67;96043.19;4995105;28;20187;-73
2021/04/17 04:49:11;;;;;;;22.73;15.73;;;;;;;0.11;79.94;96049.97;5011944;28;20182;-72
2021/04/17 04:51:37;;;;;;;23.20;17.23;;;;;;;0.11;79.49;96052.50;5012984;28;20199;-72
2021/04/17 04:54:02;;;;;;;25.73;17.90;;;;;;;0.11;79.84;96055.06;5012831;28;20195;-72
2021/04/17 04:56:28;;;;;;;23.30;16.93;;;;;;;0.16;79.74;96060.78;5011348;28;20697;-73
2021/04/17 04:58:53;;;;;;;23.20;17.07;;;;;;;0.17;79.43;96059.88;5011471;28;20298;-74
2021/04/17 05:01:18;;;;;;;21.10;16.27;;;;;;;0.29;79.38;96055.94;5011440;28;20258;-74
2021/04/17 05:03:43;;;;;;;23.37;17.77;;;;;;;0.32;79.26;96055.78;5011442;28;20201;-73
2021/04/17 05:06:09;;;;;;;24.00;17.47;;;;;;;0.36;79.23;96052.19;5011227;28;20187;-75
2021/04/17 05:08:34;;;;;;;20.83;16.60;;;;;;;0.40;78.63;96047.75;4995001;28;20203;-73
2021/04/17 05:10:59;;;;;;;23.50;16.57;;;;;;;0.40;78.92;96056.22;5012553;28;20606;-75
2021/04/17 05:13:25;;;;;;;25.97;18.50;;;;;;;0.43;78.40;96053.53;5012617;28;20175;-73
2021/04/17 05:15:50;;;;;;;23.53;16.93;;;;;;;0.44;77.98;96054.34;5012136;28;20195;-74
2021/04/17 05:18:15;;;;;;;24.83;17.67;;;;;;;0.45;78.07;96050.91;4994862;28;20207;-73
2021/04/17 05:20:41;;;;;;;20.57;15.73;;;;;;;0.46;77.84;96061.06;5011294;28;20175;-75
2021/04/17 05:23:06;;;;;;;22.27;16.37;;;;;;;0.51;78.00;96071.03;5011310;28;20179;-74
2021/04/17 05:25:31;;;;;;;22.10;16.27;;;;;;;0.48;77.56;96063.53;5012141;28;20195;-75
2021/04/17 05:27:57;;;;;;;23.47;17.23;;;;;;;0.52;77.81;96062.47;4994606;28;20301;-72
2021/04/17 05:30:22;;;;;;;19.30;15.03;;;;;;;0.55;77.84;96070.00;4994736;28;20183;-74
2021/04/17 05:32:48;;;;;;;21.23;15.20;;;;;;;0.53;77.50;96069.22;5012476;28;20187;-73
2021/04/17 05:35:13;;;;;;;22.47;16.70;;;;;;;0.55;77.23;96070.84;5011953;28;20202;-73
2021/04/17 05:37:38;;;;;;;20.40;15.57;;;;;;;0.58;77.54;96080.06;5011127;28;20238;-74
2021/04/17 05:40:05;;;;;;;22.97;15.60;;;;;;;0.68;77.33;96077.91;4994394;28;20211;-73
2021/04/17 05:42:30;;;;;;;23.37;15.97;;;;;;;0.72;77.29;96079.41;5010846;28;20179;-73
2021/04/17 05:44:55;;;;;;;19.97;15.27;;;;;;;0.75;76.98;96067.31;4993623;28;20574;-73
2021/04/17 05:47:21;;;;;;;20.40;14.97;;;;;;;0.79;77.02;96076.47;5012011;28;20619;-73
2021/04/17 05:49:46;;;;;;;22.23;16.60;;;;;;;0.82;76.79;96072.94;5012041;28;20176;-73
2021/04/17 05:52:11;;;;;;;22.47;16.83;;;;;;;0.89;76.69;96071.75;5011906;28;20187;-74
2021/04/17 05:54:37;;;;;;;20.63;16.13;;;;;;;0.99;76.68;96069.56;5011635;28;20218;-73
2021/04/17 05:57:03;;;;;;;21.93;15.87;;;;;;;1.08;76.13;96066.53;5027153;28;20178;-74
2021/04/17 05:59:28;;;;;;;20.90;16.50;;;;;;;1.19;75.78;96071.09;5011776;28;20209;-73
2021/04/17 06:01:53;;;;;;;21.30;15.10;;;;;;;1.23;75.45;96067.47;5011825;28;20190;-73
2021/04/17 06:04:19;;;;;;;20.33;15.07;;;;;;;1.23;74.91;96068.28;5010258;28;20199;-73
2021/04/17 06:06:44;;;;;;;19.90;15.53;;;;;;;1.46;75.26;96069.69;5010580;28;20186;-73
2021/04/17 06:09:09;;;;;;;20.63;15.40;;;;;;;1.64;74.90;96071.28;5010664;28;20183;-73
2021/04/17 06:11:35;;;;;;;22.80;15.27;;;;;;;1.88;73.76;96071.72;4994241;28;20598;-74
2021/04/17 06:14:00;;;;;;;19.70;14.07;;;;;;;2.18;73.35;96074.34;5011504;28;20521;-73
2021/04/17 06:16:26;;;;;;;17.83;14.07;;;;;;;2.49;72.60;96065.81;4993991;28;20585;-74
2021/04/17 06:18:51;;;;;;;16.90;13.33;;;;;;;2.73;71.09;96067.88;5026819;28;20241;-74
2021/04/17 06:21:16;;;;;;;17.60;14.13;;;;;;;3.06;69.91;96070.25;4994114;28;20644;-75
2021/04/17 06:23:42;;;;;;;14.70;12.90;;;;;;;3.13;68.98;96069.00;5026839;28;20263;-76
2021/04/17 06:26:07;;;;;;;16.77;13.87;;;;;;;3.22;68.20;96070.19;5010511;28;20645;-77
2021/04/17 06:28:33;;;;;;;18.47;13.40;;;;;;;3.19;66.57;96062.69;5010221;28;20184;-75
2021/04/17 06:30:59;;;;;;;16.07;12.83;;;;;;;3.59;67.30;96061.13;5010436;28;20545;-76
2021/04/17 06:33:24;;;;;;;15.30;12.37;;;;;;;3.84;67.08;96061.28;5026657;28;20182;-75
2021/04/17 06:35:50;;;;;;;17.10;12.63;;;;;;;4.09;64.88;96073.44;5011461;28;20201;-76
2021/04/17 06:38:15;;;;;;;14.00;10.83;;;;;;;4.16;64.20;96066.19;5010242;28;20209;-76
2021/04/17 06:40:42;;;;;;;15.07;11.53;;;;;;;4.25;62.58;96066.44;4993884;28;20593;-75
2021/04/17 06:43:08;;;;;;;23.90;15.60;;;;;;;4.12;62.02;96060.41;5028238;28;20258;-79
2021/04/17 06:45:36;;;;;;;28.00;16.50;;;;;;;3.94;62.89;96064.94;5027792;28;20617;-77
2021/04/17 06:48:05;;;;;;;35.73;21.60;;;;;;;4.26;62.54;96070.66;5026458;28;20180;-74
2021/04/17 06:50:30;;;;;;;15.17;11.57;;;;;;;4.16;61.54;96064.44;5026567;28;20179;-75
2021/04/17 06:52:57;;;;;;;15.53;12.30;;;;;;;4.04;62.81;96070.34;5010123;28;20187;-75
2021/04/17 06:55:22;;;;;;;16.83;11.83;;;;;;;4.07;62.60;96066.75;5026274;28;20246;-75
2021/04/17 06:57:48;;;;;;;15.80;13.20;;;;;;;4.04;62.32;96065.19;5009910;28;20557;-75
2021/04/17 07:00:13;;;;;;;15.27;11.17;;;;;;;4.32;62.45;96063.47;5004675;28;20657;-74
2021/04/17 07:02:41;;;;;;;19.70;12.57;;;;;;;4.08;61.94;96069.22;4986242;28;20648;-75
2021/04/17 07:05:07;;;;;;;16.00;12.97;;;;;;;3.99;61.75;96064.66;4972547;28;20200;-75
2021/04/17 07:07:33;;;;;;;17.07;12.23;;;;;;;4.19;61.20;96053.97;4976283;28;20271;-74
2021/04/17 07:09:58;;;;;;;13.57;11.00;;;;;;;4.35;61.05;96055.56;4977354;28;20264;-75
2021/04/17 07:12:24;;;;;;;16.43;11.37;;;;;;;4.12;61.61;96057.81;4977495;28;20281;-75
2021/04/17 07:14:52;;;;;;;14.50;11.63;;;;;;;4.13;61.02;96062.03;4961221;28;20266;-75
2021/04/17 07:17:17;;;;;;;13.23;10.50;;;;;;;4.28;60.40;96062.84;4977827;28;20176;-75
2021/04/17 07:19:43;;;;;;;12.27;9.13;;;;;;;4.24;59.75;96054.50;4977622;28;20210;-74
2021/04/17 07:22:15;;;;;;;15.90;10.50;;;;;;;4.46;59.94;96056.53;4995035;28;20219;-75
2021/04/17 07:24:41;;;;;;;11.33;9.63;;;;;;;4.40;60.16;96056.09;4977213;28;20551;-75
2021/04/17 07:27:06;;;;;;;11.77;8.83;;;;;;;4.43;58.65;96055.91;4977437;28;20236;-75
2021/04/17 07:29:40;;;;;;;13.77;9.50;;;;;;;4.49;59.49;96061.47;4977573;28;20203;-75
2021/04/17 07:32:05;;;;;;;11.27;9.47;;;;;;;4.66;58.08;96057.00;4961319;28;20188;-74
2021/04/17 07:34:30;;;;;;;13.50;9.30;;;;;;;4.82;58.89;96042.22;4960960;28;20258;-76
2021/04/17 07:36:58;;;;;;;13.93;9.43;;;;;;;5.11;58.04;96046.25;4961151;28;20184;-74
2021/04/17 07:39:40;;;;;;;13.03;8.87;;;;;;;5.36;57.78;96036.88;4977211;28;20524;-74
2021/04/17 07:42:15;;;;;;;11.70;8.23;;;;;;;5.50;56.37;96041.13;4977466;28;20270;-78
2021/04/17 07:44:48;;;;;;;11.87;8.47;;;;;;;5.49;56.29;96039.47;4960790;28;20686;-74
2021/04/17 07:47:32;;;;;;;10.73;8.90;;;;;;;5.11;55.65;96046.25;4960963;28;20274;-75
2021/04/17 07:50:08;;;;;;;13.60;8.23;;;;;;;5.79;55.54;96036.53;4977194;28;20246;-75
2021/04/17 07:52:34;;;;;;;11.53;7.90;;;;;;;5.61;55.51;96036.06;4977071;28;20201;-75
2021/04/17 07:54:59;;;;;;;9.97;7.23;;;;;;;5.90;54.96;96041.75;4960861;28;20675;-75
2021/04/17 07:57:31;;;;;;;8.50;6.67;;;;;;;6.52;53.78;96045.06;4994671;28;20261;-74
2021/04/17 07:59:57;;;;;;;8.80;7.33;;;;;;;6.39;53.27;96039.16;4993143;28;20230;-75
2021/04/17 08:02:23;;;;;;;10.97;7.80;;;;;;;6.90;52.08;96032.91;4976895;28;20702;-75
2021/04/17 08:04:48;;;;;;;11.80;7.73;;;;;;;6.96;52.92;96040.19;4986531;28;20238;-74
2021/04/17 08:07:14;;;;;;;9.20;7.17;;;;;;;6.76;52.31;96052.78;4978548;28;20670;-76
2021/04/17 08:09:41;;;;;;;8.97;6.60;;;;;;;6.65;51.17;96042.44;5011375;28;20179;-75
2021/04/17 08:12:08;;;;;;;8.07;6.73;;;;;;;6.60;51.15;96043.69;5010095;28;20696;-76
2021/04/17 08:14:34;;;;;;;9.80;7.10;;;;;;;6.50;52.15;96054.69;5013846;28;20276;-74
2021/04/17 08:16:59;;;;;;;15.93;8.50;;;;;;;6.39;51.04;96043.50;5013662;28;20627;-74
2021/04/17 08:19:25;;;;;;;11.70;7.90;;;;;;;6.25;51.58;96040.13;5019492;28;20217;-78
2021/04/17 08:21:51;;;;;;;15.43;8.90;;;;;;;6.11;52.24;96042.06;5023820;28;20186;-78
2021/04/17 08:24:23;;;;;;;10.13;6.40;;;;;;;5.73;51.95;96042.09;5018607;28;20199;-78
2021/04/17 08:26:51;;;;;;;7.93;6.40;;;;;;;5.51;52.42;96045.34;5014408;28;20628;-78
2021/04/17 08:29:46;;;;;;;13.73;8.10;;;;;;;5.82;51.75;96039.72;5014890;28;20642;-79
2021/04/17 08:32:35;;;;;;;13.30;7.93;;;;;;;5.96;51.42;96031.06;5030994;28;20179;-79
2021/04/17 08:35:09;;;;;;;10.67;7.13;;;;;;;6.23;50.57;96041.19;5013902;28;20226;-80
2021/04/17 08:37:55;;;;;;;20.30;13.00;;;;;;;6.14;50.50;96039.25;5031874;28;20264;-79
2021/04/17 08:40:32;;;;;;;26.57;17.67;;;;;;;5.89;49.69;96040.94;5016032;28;20319;-78
2021/04/17 08:42:57;;;;;;;8.13;5.83;;;;;;;5.94;50.30;96038.91;5030823;28;20183;-79
2021/04/17 08:45:23;;;;;;;16.27;9.57;;;;;;;6.23;49.16;96042.00;5014531;28;20231;-79
2021/04/17 08:47:53;;;;;;;11.07;5.43;;;;;;;6.35;49.14;96042.06;5015465;28;20190;-79
2021/04/17 08:50:40;;;;;;;7.87;5.50;;;;;;;6.54;47.84;96042.41;5015046;28;20182;-81
2021/04/17 08:53:13;;;;;;;6.10;5.03;;;;;;;6.69;47.59;96046.44;5007314;28;20674;-75
2021/04/17 08:55:38;;;;;;;4.47;4.07;;;;;;;7.27;46.76;96044.72;5017956;28;20203;-73
2021/04/17 08:58:29;;;;;;;6.70;5.07;;;;;;;7.30;47.28;96034.16;4994332;28;20176;-77
2021/04/17 09:00:55;;;;;;;5.30;4.80;;;;;;;7.05;46.21;96037.72;4989738;28;20199;-85
2021/04/17 09:03:43;;;;;;;5.33;4.43;;;;;;;6.12;49.57;96039.38;4992938;28;20180;-74
2021/04/17 09:06:30;;;;;;;6.57;4.40;;;;;;;6.17;48.43;96041.59;4959148;28;20188;-74
2021/04/17 09:09:14;;;;;;;6.83;4.90;;;;;;;6.60;47.00;96043.69;4999715;28;20208;-74
2021/04/17 09:11:39;;;;;;;5.70;4.13;;;;;;;6.97;44.81;96034.06;5010551;28;20183;-75
2021/04/17 09:14:27;;;;;;;8.90;4.53;;;;;;;6.35;47.28;96032.56;5011980;28;20195;-73
2021/04/17 09:16:54;;;;;;;5.90;4.93;;;;;;;6.02;48.77;96033.22;4999386;28;20225;-74
2021/04/17 09:19:37;;;;;;;8.40;5.33;;;;;;;6.63;49.05;96036.56;4981393;28;20250;-73
2021/04/17 09:22:03;;;;;;;9.20;4.93;;;;;;;7.06;47.83;96034.22;4992032;28;20493;-74
2021/04/17 09:24:28;;;;;;;8.20;5.90;;;;;;;7.18;46.53;96036.84;4974885;28;20250;-73
2021/04/17 09:26:54;;;;;;;5.03;4.50;;;;;;;6.90;44.20;96032.91;4992360;28;20179;-73
2021/04/17 09:29:24;;;;;;;11.40;5.00;;;;;;;6.85;45.90;96022.09;4992277;28;20215;-74
2021/04/17 09:31:51;;;;;;;5.33;4.63;;;;;;;6.90;46.16;96018.25;4975020;28;20180;-73
2021/04/17 09:34:17;;;;;;;5.50;4.97;;;;;;;7.36;46.44;96023.34;4958865;28;20699;-72
2021/04/17 09:36:44;;;;;;;8.63;5.23;;;;;;;7.43;46.20;96025.50;4975296;28;20179;-73
2021/04/17 09:39:29;;;;;;;10.90;8.10;;;;;;;7.28;45.77;96030.88;4975107;28;20230;-73
2021/04/17 09:41:57;;;;;;;5.93;4.80;;;;;;;7.48;44.83;96024.19;4968083;28;20199;-73
2021/04/17 09:44:23;;;;;;;7.60;4.70;;;;;;;7.63;43.81;96022.19;4974637;28;20200;-74
2021/04/17 09:47:08;;;;;;;7.13;4.47;;;;;;;7.55;44.27;96019.38;4991485;28;20189;-73
2021/04/17 09:49:36;;;;;;;7.30;4.70;;;;;;;7.69;44.48;96026.06;5014382;28;20183;-73
2021/04/17 09:52:01;;;;;;;5.37;4.80;;;;;;;6.98;44.92;96021.06;5027104;28;20221;-73
2021/04/17 09:54:28;;;;;;;7.00;4.67;;;;;;;7.28;44.89;96017.13;5028365;28;20210;-73
2021/04/17 09:56:54;;;;;;;8.97;4.83;;;;;;;6.96;45.92;96020.34;5010669;28;20186;-73
2021/04/17 09:59:20;;;;;;;8.70;4.90;;;;;;;7.35;45.11;96015.72;5010922;28;20210;-73
2021/04/17 10:01:53;;;;;;;6.57;4.93;;;;;;;7.57;44.81;96002.78;5028025;28;20673;-73
2021/04/17 10:04:19;;;;;;;8.13;4.63;;;;;;;7.82;44.81;96017.25;4999823;28;20239;-73
2021/04/17 10:06:54;;;;;;;5.63;5.00;;;;;;;6.79;46.29;96007.84;5013871;28;20214;-73
2021/04/17 10:09:21;;;;;;;9.00;4.37;;;;;;;6.08;47.57;96009.56;5027157;28;20183;-73
2021/04/17 10:11:46;;;;;;;6.90;4.13;;;;;;;6.43;47.73;96012.19;5013929;28;20197;-73
2021/04/17 10:14:13;;;;;;;4.57;4.03;;;;;;;6.30;47.66;96003.72;5013503;28;20206;-73
2021/04/17 10:16:41;;;;;;;4.90;4.10;;;;;;;6.38;46.69;95992.84;5013457;28;20256;-73
2021/04/17 10:19:12;;;;;;;6.10;4.37;;;;;;;6.38;44.44;95995.41;5029980;28;20557;-73
2021/04/17 10:21:38;;;;;;;7.80;3.70;;;;;;;6.67;43.76;95999.28;5030011;28;20261;-73
2021/04/17 10:24:22;;;;;;;4.83;3.50;;;;;;;6.88;43.77;95994.28;5029737;28;20281;-73
2021/04/17 10:26:47;;;;;;;4.43;3.50;;;;;;;6.71;43.66;95984.38;5031200;28;20174;-73
2021/04/17 10:29:13;;;;;;;8.50;3.60;;;;;;;7.26;42.84;95993.19;5030961;28;20193;-73
2021/04/17 10:31:38;;;;;;;5.77;4.17;;;;;;;7.69;42.43;95995.06;5013526;28;20634;-73
2021/04/17 10:34:03;;;;;;;4.20;3.67;;;;;;;7.83;42.67;95979.28;5031022;28;20229;-73
2021/04/17 10:36:29;;;;;;;5.40;4.23;;;;;;;8.15;43.05;95980.16;5013266;28;20185;-73
2021/04/17 10:39:05;;;;;;;6.73;4.00;;;;;;;8.50;43.04;95971.34;5029980;28;20233;-73
2021/04/17 10:41:33;;;;;;;4.70;4.00;;;;;;;8.51;41.77;95973.00;5029970;28;20178;-73
2021/04/17 10:44:10;;;;;;;9.33;4.10;;;;;;;8.09;40.61;95979.81;5000903;28;20266;-73
2021/04/17 10:46:44;;;;;;;6.10;4.20;;;;;;;8.30;41.01;95972.09;5017078;28;20175;-73
2021/04/17 10:49:09;;;;;;;4.47;3.60;;;;;;;8.31;40.93;95960.81;5033811;28;20178;-73
2021/04/17 10:51:39;;;;;;;6.03;4.30;;;;;;;8.07;42.09;95972.19;5017289;28;20608;-73
2021/04/17 10:54:04;;;;;;;5.10;3.93;;;;;;;7.35;43.96;95962.28;5034976;28;20190;-73
2021/04/17 10:56:31;;;;;;;4.67;4.10;;;;;;;7.91;43.79;95961.41;5017010;28;20193;-73
2021/04/17 10:58:59;;;;;;;6.27;4.03;;;;;;;7.86;41.74;95971.28;5017190;28;20561;-73
2021/04/17 11:01:26;;;;;;;5.50;4.50;;;;;;;8.30;41.92;95959.16;5017141;28;20240;-73
2021/04/17 11:03:53;;;;;;;5.93;4.17;;;;;;;8.74;42.12;95958.97;5017010;28;20673;-73
2021/04/17 11:06:24;;;;;;;4.77;3.70;;;;;;;9.16;41.25;95958.97;5016861;28;20182;-73
2021/04/17 11:08:59;;;;;;;13.13;4.40;;;;;;;7.99;42.14;95958.22;5034653;28;20254;-72
2021/04/17 11:11:24;;;;;;;7.30;3.93;;;;;;;8.23;42.08;95949.31;5017203;28;20620;-73
2021/04/17 11:13:57;;;;;;;5.00;4.10;;;;;;;7.79;41.95;95947.69;5034366;28;20175;-72
2021/04/17 11:16:41;;;;;;;4.33;3.43;;;;;;;7.45;41.77;95954.66;5016515;28;20183;-73
2021/04/17 11:19:26;;;;;;;5.57;3.50;;;;;;;8.07;40.11;95948.91;5033316;28;20207;-73
2021/04/17 11:22:16;;;;;;;8.37;3.50;;;;;;;8.53;41.91;95937.44;5016778;28;20185;-73
2021/04/17 11:25:02;;;;;;;4.60;3.40;;;;;;;9.09;40.16;95937.91;5032849;28;20213;-74
2021/04/17 11:27:28;;;;;;;7.47;3.70;;;;;;;9.28;40.44;95934.63;5034227;28;20589;-74
2021/04/17 11:29:54;;;;;;;4.93;3.63;;;;;;;8.51;39.85;95927.22;5016472;28;20179;-73